sensor_id;sensor_type;location;lat;lon;timestamp;temperature;humidity
10123;DHT22;5101;49.038;8.710;2023-09-19T00:00:59;17.60;99.90
10123;DHT22;5101;49.038;8.710;2023-09-19T00:03:25;17.60;99.90
10123;DHT22;5101;49.038;8.710;2023-09-19T00:05:54;17.50;99.90
10123;DHT22;5101;49.038;8.710;2023-09-19T00:08:21;17.50;99.90
10123;DHT22;5101;49.038;8.710;2023-09-19T00:10:50;17.60;99.90
10123;DHT22;5101;49.038;8.710;2023-09-19T00:13:15;17.60;99.90
10123;DHT22;5101;49.038;8.710;2023-09-19T00:15:43;17.50;99.90
10123;DHT22;5101;49.038;8.710;2023-09-19T00:18:10;17.50;99.90
10123;DHT22;5101;49.038;8.710;2023-09-19T00:20:37;17.50;99.90
10123;DHT22;5101;49.038;8.710;2023-09-19T00:23:06;17.50;99.90
10123;DHT22;5101;49.038;8.710;2023-09-19T00:25:34;17.60;99.90
10123;DHT22;5101;49.038;8.710;2023-09-19T00:28:01;17.50;99.90
10123;DHT22;5101;49.038;8.710;2023-09-19T00:30:26;17.50;99.90
10123;DHT22;5101;49.038;8.710;2023-09-19T00:32:52;17.50;99.90
10123;DHT22;5101;49.038;8.710;2023-09-19T00:35:21;17.50;99.90
10123;DHT22;5101;49.038;8.710;2023-09-19T00:37:50;17.50;99.90
10123;DHT22;5101;49.038;8.710;2023-09-19T00:40:15;17.50;99.90
10123;DHT22;5101;49.038;8.710;2023-09-19T00:42:42;17.60;99.90
10123;DHT22;5101;49.038;8.710;2023-09-19T00:45:09;17.50;99.90
10123;DHT22;5101;49.038;8.710;2023-09-19T00:47:39;17.50;99.90
10123;DHT22;5101;49.038;8.710;2023-09-19T00:50:06;17.50;99.90
10123;DHT22;5101;49.038;8.710;2023-09-19T00:52:37;17.50;99.90
10123;DHT22;5101;49.038;8.710;2023-09-19T00:55:05;17.60;99.90
10123;DHT22;5101;49.038;8.710;2023-09-19T00:57:31;17.60;99.90
10123;DHT22;5101;49.038;8.710;2023-09-19T00:59:58;17.60;99.90
10123;DHT22;5101;49.038;8.710;2023-09-19T01:02:25;17.60;99.90
10123;DHT22;5101;49.038;8.710;2023-09-19T01:04:54;17.60;99.90
10123;DHT22;5101;49.038;8.710;2023-09-19T01:07:20;17.60;99.90
10123;DHT22;5101;49.038;8.710;2023-09-19T01:09:48;17.60;99.90
10123;DHT22;5101;49.038;8.710;2023-09-19T01:12:16;17.60;99.90
10123;DHT22;5101;49.038;8.710;2023-09-19T01:14:52;17.70;99.90
10123;DHT22;5101;49.038;8.710;2023-09-19T01:17:32;17.70;99.90
10123;DHT22;5101;49.038;8.710;2023-09-19T01:20:15;17.70;99.90
10123;DHT22;5101;49.038;8.710;2023-09-19T01:28:29;17.70;99.90
10123;DHT22;5101;49.038;8.710;2023-09-19T01:30:59;17.70;99.90
10123;DHT22;5101;49.038;8.710;2023-09-19T01:33:28;17.70;99.90
10123;DHT22;5101;49.038;8.710;2023-09-19T01:36:16;17.70;99.90
10123;DHT22;5101;49.038;8.710;2023-09-19T01:38:42;17.70;99.90
10123;DHT22;5101;49.038;8.710;2023-09-19T01:41:11;17.70;99.90
10123;DHT22;5101;49.038;8.710;2023-09-19T01:43:42;17.70;99.90
10123;DHT22;5101;49.038;8.710;2023-09-19T01:46:22;17.70;99.90
10123;DHT22;5101;49.038;8.710;2023-09-19T01:51:45;17.70;99.90
10123;DHT22;5101;49.038;8.710;2023-09-19T01:54:12;17.70;99.90
10123;DHT22;5101;49.038;8.710;2023-09-19T01:56:53;17.70;99.90
10123;DHT22;5101;49.038;8.710;2023-09-19T01:59:24;17.70;99.90
10123;DHT22;5101;49.038;8.710;2023-09-19T02:01:53;17.70;99.90
10123;DHT22;5101;49.038;8.710;2023-09-19T02:04:20;17.70;99.90
10123;DHT22;5101;49.038;8.710;2023-09-19T02:06:45;17.70;99.90
10123;DHT22;5101;49.038;8.710;2023-09-19T02:09:13;17.70;99.90
10123;DHT22;5101;49.038;8.710;2023-09-19T02:11:39;17.80;99.90
10123;DHT22;5101;49.038;8.710;2023-09-19T02:14:06;17.80;99.90
10123;DHT22;5101;49.038;8.710;2023-09-19T02:16:34;17.80;99.90
10123;DHT22;5101;49.038;8.710;2023-09-19T02:18:59;17.80;99.90
10123;DHT22;5101;49.038;8.710;2023-09-19T02:21:25;17.90;99.90
10123;DHT22;5101;49.038;8.710;2023-09-19T02:23:52;17.90;99.90
10123;DHT22;5101;49.038;8.710;2023-09-19T02:26:17;17.90;99.90
10123;DHT22;5101;49.038;8.710;2023-09-19T02:28:45;17.90;99.90
10123;DHT22;5101;49.038;8.710;2023-09-19T02:31:11;17.90;99.90
10123;DHT22;5101;49.038;8.710;2023-09-19T02:33:37;18.00;99.90
10123;DHT22;5101;49.038;8.710;2023-09-19T02:36:03;18.00;99.90
10123;DHT22;5101;49.038;8.710;2023-09-19T02:38:31;18.00;99.90
10123;DHT22;5101;49.038;8.710;2023-09-19T02:40:57;18.00;99.90
10123;DHT22;5101;49.038;8.710;2023-09-19T02:43:23;18.00;99.90
10123;DHT22;5101;49.038;8.710;2023-09-19T02:45:49;18.00;99.90
10123;DHT22;5101;49.038;8.710;2023-09-19T02:48:18;18.10;99.90
10123;DHT22;5101;49.038;8.710;2023-09-19T02:50:44;18.10;99.90
10123;DHT22;5101;49.038;8.710;2023-09-19T02:53:09;18.10;99.90
10123;DHT22;5101;49.038;8.710;2023-09-19T02:55:38;18.10;99.90
10123;DHT22;5101;49.038;8.710;2023-09-19T02:58:06;18.10;99.90
10123;DHT22;5101;49.038;8.710;2023-09-19T03:00:37;18.10;99.90
10123;DHT22;5101;49.038;8.710;2023-09-19T03:03:03;18.20;99.90
10123;DHT22;5101;49.038;8.710;2023-09-19T03:05:29;18.10;99.90
10123;DHT22;5101;49.038;8.710;2023-09-19T03:07:57;18.10;99.90
10123;DHT22;5101;49.038;8.710;2023-09-19T03:10:26;18.10;99.90
10123;DHT22;5101;49.038;8.710;2023-09-19T03:12:52;18.10;99.90
10123;DHT22;5101;49.038;8.710;2023-09-19T03:15:17;18.10;99.90
10123;DHT22;5101;49.038;8.710;2023-09-19T03:17:44;18.10;99.90
10123;DHT22;5101;49.038;8.710;2023-09-19T03:20:11;18.10;99.90
10123;DHT22;5101;49.038;8.710;2023-09-19T03:22:39;18.20;99.90
10123;DHT22;5101;49.038;8.710;2023-09-19T03:25:06;18.20;99.90
10123;DHT22;5101;49.038;8.710;2023-09-19T03:27:34;18.20;99.90
10123;DHT22;5101;49.038;8.710;2023-09-19T03:30:00;18.20;99.90
10123;DHT22;5101;49.038;8.710;2023-09-19T03:32:26;18.10;99.90
10123;DHT22;5101;49.038;8.710;2023-09-19T03:34:52;18.10;99.90
10123;DHT22;5101;49.038;8.710;2023-09-19T03:37:17;18.10;99.90
10123;DHT22;5101;49.038;8.710;2023-09-19T03:39:43;18.10;99.90
10123;DHT22;5101;49.038;8.710;2023-09-19T03:42:08;18.10;99.90
10123;DHT22;5101;49.038;8.710;2023-09-19T03:44:35;18.10;99.90
10123;DHT22;5101;49.038;8.710;2023-09-19T03:47:00;18.00;99.90
10123;DHT22;5101;49.038;8.710;2023-09-19T03:49:26;18.00;99.90
10123;DHT22;5101;49.038;8.710;2023-09-19T03:51:51;18.00;99.90
10123;DHT22;5101;49.038;8.710;2023-09-19T03:54:17;18.00;99.90
10123;DHT22;5101;49.038;8.710;2023-09-19T03:56:44;18.00;99.90
10123;DHT22;5101;49.038;8.710;2023-09-19T03:59:10;18.00;99.90
10123;DHT22;5101;49.038;8.710;2023-09-19T04:01:37;18.00;99.90
10123;DHT22;5101;49.038;8.710;2023-09-19T04:04:03;17.90;99.90
10123;DHT22;5101;49.038;8.710;2023-09-19T04:06:36;18.00;99.90
10123;DHT22;5101;49.038;8.710;2023-09-19T04:09:03;18.00;99.90
10123;DHT22;5101;49.038;8.710;2023-09-19T04:11:29;17.90;99.90
10123;DHT22;5101;49.038;8.710;2023-09-19T04:13:56;17.90;99.90
10123;DHT22;5101;49.038;8.710;2023-09-19T04:16:21;17.90;99.90
10123;DHT22;5101;49.038;8.710;2023-09-19T04:18:47;17.90;99.90
10123;DHT22;5101;49.038;8.710;2023-09-19T04:21:12;17.90;99.90
10123;DHT22;5101;49.038;8.710;2023-09-19T04:23:38;17.80;99.90
10123;DHT22;5101;49.038;8.710;2023-09-19T04:26:03;17.80;99.90
10123;DHT22;5101;49.038;8.710;2023-09-19T04:28:30;17.80;99.90
10123;DHT22;5101;49.038;8.710;2023-09-19T04:30:56;17.80;99.90
10123;DHT22;5101;49.038;8.710;2023-09-19T04:33:21;17.80;99.90
10123;DHT22;5101;49.038;8.710;2023-09-19T04:35:49;17.90;99.90
10123;DHT22;5101;49.038;8.710;2023-09-19T04:38:16;17.90;99.90
10123;DHT22;5101;49.038;8.710;2023-09-19T04:40:41;17.90;99.90
10123;DHT22;5101;49.038;8.710;2023-09-19T04:43:07;17.90;99.90
10123;DHT22;5101;49.038;8.710;2023-09-19T04:45:33;17.90;99.90
10123;DHT22;5101;49.038;8.710;2023-09-19T04:47:58;17.90;99.90
10123;DHT22;5101;49.038;8.710;2023-09-19T04:50:23;17.90;99.90
10123;DHT22;5101;49.038;8.710;2023-09-19T04:52:52;17.90;99.90
10123;DHT22;5101;49.038;8.710;2023-09-19T04:55:19;17.90;99.90
10123;DHT22;5101;49.038;8.710;2023-09-19T04:57:51;17.90;99.90
10123;DHT22;5101;49.038;8.710;2023-09-19T05:00:20;17.90;99.90
10123;DHT22;5101;49.038;8.710;2023-09-19T05:02:49;17.90;99.90
10123;DHT22;5101;49.038;8.710;2023-09-19T05:05:15;17.90;99.90
10123;DHT22;5101;49.038;8.710;2023-09-19T05:07:42;17.90;99.90
10123;DHT22;5101;49.038;8.710;2023-09-19T05:10:08;17.90;99.90
10123;DHT22;5101;49.038;8.710;2023-09-19T05:12:35;17.90;99.90
10123;DHT22;5101;49.038;8.710;2023-09-19T05:15:02;17.90;99.90
10123;DHT22;5101;49.038;8.710;2023-09-19T05:17:28;17.80;99.90
10123;DHT22;5101;49.038;8.710;2023-09-19T05:19:53;17.80;99.90
10123;DHT22;5101;49.038;8.710;2023-09-19T05:22:19;17.80;99.90
10123;DHT22;5101;49.038;8.710;2023-09-19T05:24:44;17.90;99.90
10123;DHT22;5101;49.038;8.710;2023-09-19T05:27:14;17.90;99.90
10123;DHT22;5101;49.038;8.710;2023-09-19T05:29:45;17.90;99.90
10123;DHT22;5101;49.038;8.710;2023-09-19T05:32:11;17.90;99.90
10123;DHT22;5101;49.038;8.710;2023-09-19T05:34:37;17.90;99.90
10123;DHT22;5101;49.038;8.710;2023-09-19T05:37:03;17.90;99.90
10123;DHT22;5101;49.038;8.710;2023-09-19T05:39:30;17.90;99.90
10123;DHT22;5101;49.038;8.710;2023-09-19T05:41:55;17.80;99.90
10123;DHT22;5101;49.038;8.710;2023-09-19T05:44:22;17.80;99.90
10123;DHT22;5101;49.038;8.710;2023-09-19T05:46:48;17.80;99.90
10123;DHT22;5101;49.038;8.710;2023-09-19T05:49:14;17.90;99.90
10123;DHT22;5101;49.038;8.710;2023-09-19T05:51:39;17.90;99.90
10123;DHT22;5101;49.038;8.710;2023-09-19T05:54:05;17.90;99.90
10123;DHT22;5101;49.038;8.710;2023-09-19T05:56:30;17.90;99.90
10123;DHT22;5101;49.038;8.710;2023-09-19T05:58:56;17.90;99.90
10123;DHT22;5101;49.038;8.710;2023-09-19T06:01:22;17.90;99.90
10123;DHT22;5101;49.038;8.710;2023-09-19T06:03:47;17.90;99.90
10123;DHT22;5101;49.038;8.710;2023-09-19T06:06:13;17.90;99.90
10123;DHT22;5101;49.038;8.710;2023-09-19T06:08:39;17.90;99.90
10123;DHT22;5101;49.038;8.710;2023-09-19T06:11:04;17.90;99.90
10123;DHT22;5101;49.038;8.710;2023-09-19T06:13:32;18.00;99.90
10123;DHT22;5101;49.038;8.710;2023-09-19T06:15:59;18.00;99.90
10123;DHT22;5101;49.038;8.710;2023-09-19T06:18:25;18.00;99.90
10123;DHT22;5101;49.038;8.710;2023-09-19T06:20:51;18.00;99.90
10123;DHT22;5101;49.038;8.710;2023-09-19T06:23:17;18.00;99.90
10123;DHT22;5101;49.038;8.710;2023-09-19T06:25:43;18.10;99.90
10123;DHT22;5101;49.038;8.710;2023-09-19T06:28:09;18.10;99.90
10123;DHT22;5101;49.038;8.710;2023-09-19T06:30:38;18.10;99.90
10123;DHT22;5101;49.038;8.710;2023-09-19T06:33:05;18.10;99.90
10123;DHT22;5101;49.038;8.710;2023-09-19T06:35:33;18.20;99.90
10123;DHT22;5101;49.038;8.710;2023-09-19T06:37:59;18.20;99.90
10123;DHT22;5101;49.038;8.710;2023-09-19T06:40:28;18.10;99.90
10123;DHT22;5101;49.038;8.710;2023-09-19T06:42:54;18.20;99.90
10123;DHT22;5101;49.038;8.710;2023-09-19T06:45:21;18.20;99.90
10123;DHT22;5101;49.038;8.710;2023-09-19T06:47:51;18.20;99.90
10123;DHT22;5101;49.038;8.710;2023-09-19T06:50:20;18.20;99.90
10123;DHT22;5101;49.038;8.710;2023-09-19T06:52:49;18.20;99.90
10123;DHT22;5101;49.038;8.710;2023-09-19T06:55:16;18.30;99.90
10123;DHT22;5101;49.038;8.710;2023-09-19T06:57:45;18.30;99.90
10123;DHT22;5101;49.038;8.710;2023-09-19T07:00:11;18.20;99.90
10123;DHT22;5101;49.038;8.710;2023-09-19T07:05:27;18.30;99.90
10123;DHT22;5101;49.038;8.710;2023-09-19T07:07:53;18.40;99.90
10123;DHT22;5101;49.038;8.710;2023-09-19T07:10:20;18.40;99.90
10123;DHT22;5101;49.038;8.710;2023-09-19T07:12:54;18.40;99.90
10123;DHT22;5101;49.038;8.710;2023-09-19T07:15:20;18.40;99.90
10123;DHT22;5101;49.038;8.710;2023-09-19T07:17:46;18.50;99.90
10123;DHT22;5101;49.038;8.710;2023-09-19T07:20:13;18.50;99.90
10123;DHT22;5101;49.038;8.710;2023-09-19T07:22:41;18.50;99.90
10123;DHT22;5101;49.038;8.710;2023-09-19T07:25:07;18.60;99.90
10123;DHT22;5101;49.038;8.710;2023-09-19T07:27:33;18.60;99.90
10123;DHT22;5101;49.038;8.710;2023-09-19T07:29:59;18.60;99.90
10123;DHT22;5101;49.038;8.710;2023-09-19T07:32:24;18.80;99.90
10123;DHT22;5101;49.038;8.710;2023-09-19T07:34:50;18.90;99.90
10123;DHT22;5101;49.038;8.710;2023-09-19T07:37:15;19.00;99.90
10123;DHT22;5101;49.038;8.710;2023-09-19T07:39:41;19.10;99.90
10123;DHT22;5101;49.038;8.710;2023-09-19T07:42:07;19.40;99.90
10123;DHT22;5101;49.038;8.710;2023-09-19T07:44:35;19.60;99.90
10123;DHT22;5101;49.038;8.710;2023-09-19T07:47:00;19.90;99.90
10123;DHT22;5101;49.038;8.710;2023-09-19T07:49:28;20.10;99.90
10123;DHT22;5101;49.038;8.710;2023-09-19T07:51:54;20.30;99.90
10123;DHT22;5101;49.038;8.710;2023-09-19T07:54:20;20.50;99.90
10123;DHT22;5101;49.038;8.710;2023-09-19T07:56:46;20.70;99.60
10123;DHT22;5101;49.038;8.710;2023-09-19T07:59:11;20.90;98.80
10123;DHT22;5101;49.038;8.710;2023-09-19T08:01:37;21.30;97.90
10123;DHT22;5101;49.038;8.710;2023-09-19T08:04:05;21.50;96.70
10123;DHT22;5101;49.038;8.710;2023-09-19T08:06:30;21.70;96.20
10123;DHT22;5101;49.038;8.710;2023-09-19T08:08:56;22.00;95.40
10123;DHT22;5101;49.038;8.710;2023-09-19T08:11:22;22.20;94.70
10123;DHT22;5101;49.038;8.710;2023-09-19T08:13:49;22.50;93.90
10123;DHT22;5101;49.038;8.710;2023-09-19T08:16:16;22.80;93.20
10123;DHT22;5101;49.038;8.710;2023-09-19T08:18:46;23.00;92.00
10123;DHT22;5101;49.038;8.710;2023-09-19T08:21:12;23.10;91.30
10123;DHT22;5101;49.038;8.710;2023-09-19T08:23:37;23.20;90.90
10123;DHT22;5101;49.038;8.710;2023-09-19T08:26:06;23.30;90.50
10123;DHT22;5101;49.038;8.710;2023-09-19T08:28:36;23.40;89.90
10123;DHT22;5101;49.038;8.710;2023-09-19T08:31:05;23.50;88.90
10123;DHT22;5101;49.038;8.710;2023-09-19T08:33:32;23.40;88.10
10123;DHT22;5101;49.038;8.710;2023-09-19T08:35:58;23.40;87.50
10123;DHT22;5101;49.038;8.710;2023-09-19T08:38:23;23.50;87.40
10123;DHT22;5101;49.038;8.710;2023-09-19T08:40:49;23.80;86.60
10123;DHT22;5101;49.038;8.710;2023-09-19T08:43:14;23.70;86.20
10123;DHT22;5101;49.038;8.710;2023-09-19T08:45:40;23.80;85.80
10123;DHT22;5101;49.038;8.710;2023-09-19T08:48:28;24.20;85.00
10123;DHT22;5101;49.038;8.710;2023-09-19T08:51:07;24.30;82.50
10123;DHT22;5101;49.038;8.710;2023-09-19T08:56:17;24.50;81.10
10123;DHT22;5101;49.038;8.710;2023-09-19T09:01:18;24.40;78.70
10123;DHT22;5101;49.038;8.710;2023-09-19T09:03:53;24.20;78.10
10123;DHT22;5101;49.038;8.710;2023-09-19T09:06:23;24.10;77.60
10123;DHT22;5101;49.038;8.710;2023-09-19T09:08:52;24.10;78.30
10123;DHT22;5101;49.038;8.710;2023-09-19T09:11:19;23.90;78.50
10123;DHT22;5101;49.038;8.710;2023-09-19T09:13:45;23.70;79.00
10123;DHT22;5101;49.038;8.710;2023-09-19T09:16:11;23.60;79.00
10123;DHT22;5101;49.038;8.710;2023-09-19T09:18:38;23.70;79.90
10123;DHT22;5101;49.038;8.710;2023-09-19T09:21:04;23.70;80.30
10123;DHT22;5101;49.038;8.710;2023-09-19T09:23:30;23.70;80.40
10123;DHT22;5101;49.038;8.710;2023-09-19T09:25:57;23.70;80.60
10123;DHT22;5101;49.038;8.710;2023-09-19T09:28:27;23.60;80.90
10123;DHT22;5101;49.038;8.710;2023-09-19T09:30:54;23.70;80.90
10123;DHT22;5101;49.038;8.710;2023-09-19T09:33:20;23.90;81.00
10123;DHT22;5101;49.038;8.710;2023-09-19T09:38:21;24.30;78.90
10123;DHT22;5101;49.038;8.710;2023-09-19T09:40:48;24.50;79.20
10123;DHT22;5101;49.038;8.710;2023-09-19T09:43:39;24.70;78.70
10123;DHT22;5101;49.038;8.710;2023-09-19T09:46:15;24.90;75.90
10123;DHT22;5101;49.038;8.710;2023-09-19T09:48:55;25.10;74.10
10123;DHT22;5101;49.038;8.710;2023-09-19T09:51:44;25.20;72.60
10123;DHT22;5101;49.038;8.710;2023-09-19T09:54:23;25.30;71.00
10123;DHT22;5101;49.038;8.710;2023-09-19T09:56:57;25.30;69.60
10123;DHT22;5101;49.038;8.710;2023-09-19T09:59:49;25.40;68.90
10123;DHT22;5101;49.038;8.710;2023-09-19T10:02:25;25.60;67.60
10123;DHT22;5101;49.038;8.710;2023-09-19T10:04:55;25.50;67.80
10123;DHT22;5101;49.038;8.710;2023-09-19T10:07:40;25.60;66.30
10123;DHT22;5101;49.038;8.710;2023-09-19T10:10:08;25.60;66.10
10123;DHT22;5101;49.038;8.710;2023-09-19T10:12:43;25.70;65.80
10123;DHT22;5101;49.038;8.710;2023-09-19T10:15:10;25.90;65.60
10123;DHT22;5101;49.038;8.710;2023-09-19T10:17:36;25.90;65.30
10123;DHT22;5101;49.038;8.710;2023-09-19T10:20:04;25.90;64.50
10123;DHT22;5101;49.038;8.710;2023-09-19T10:22:43;25.70;63.50
10123;DHT22;5101;49.038;8.710;2023-09-19T10:25:09;25.70;62.80
10123;DHT22;5101;49.038;8.710;2023-09-19T10:27:36;25.70;63.70
10123;DHT22;5101;49.038;8.710;2023-09-19T10:30:05;25.60;64.20
10123;DHT22;5101;49.038;8.710;2023-09-19T10:32:33;25.40;65.00
10123;DHT22;5101;49.038;8.710;2023-09-19T10:35:01;25.30;65.70
10123;DHT22;5101;49.038;8.710;2023-09-19T10:37:27;25.40;66.00
10123;DHT22;5101;49.038;8.710;2023-09-19T10:39:56;25.50;64.70
10123;DHT22;5101;49.038;8.710;2023-09-19T10:42:23;25.40;63.70
10123;DHT22;5101;49.038;8.710;2023-09-19T10:44:53;25.30;62.20
10123;DHT22;5101;49.038;8.710;2023-09-19T10:47:20;25.30;61.80
10123;DHT22;5101;49.038;8.710;2023-09-19T10:49:49;25.30;63.20
10123;DHT22;5101;49.038;8.710;2023-09-19T10:52:19;25.40;63.10
10123;DHT22;5101;49.038;8.710;2023-09-19T10:54:48;25.50;63.10
10123;DHT22;5101;49.038;8.710;2023-09-19T10:57:21;25.50;61.10
10123;DHT22;5101;49.038;8.710;2023-09-19T11:00:03;25.60;62.00
10123;DHT22;5101;49.038;8.710;2023-09-19T11:05:37;25.60;58.90
10123;DHT22;5101;49.038;8.710;2023-09-19T11:08:07;25.60;59.50
10123;DHT22;5101;49.038;8.710;2023-09-19T11:10:49;25.60;60.60
10123;DHT22;5101;49.038;8.710;2023-09-19T11:13:29;25.80;60.10
10123;DHT22;5101;49.038;8.710;2023-09-19T11:16:03;25.90;60.80
10123;DHT22;5101;49.038;8.710;2023-09-19T11:27:12;25.90;59.30
10123;DHT22;5101;49.038;8.710;2023-09-19T11:29:39;25.90;59.30
10123;DHT22;5101;49.038;8.710;2023-09-19T11:32:05;25.80;60.00
10123;DHT22;5101;49.038;8.710;2023-09-19T11:34:37;25.80;59.50
10123;DHT22;5101;49.038;8.710;2023-09-19T11:39:40;25.50;58.40
10123;DHT22;5101;49.038;8.710;2023-09-19T11:42:46;25.10;59.20
10123;DHT22;5101;49.038;8.710;2023-09-19T11:46:01;25.10;61.00
10123;DHT22;5101;49.038;8.710;2023-09-19T11:48:27;25.00;61.20
10123;DHT22;5101;49.038;8.710;2023-09-19T11:50:53;24.90;61.30
10123;DHT22;5101;49.038;8.710;2023-09-19T11:53:21;24.90;61.50
10123;DHT22;5101;49.038;8.710;2023-09-19T11:55:47;24.90;61.20
10123;DHT22;5101;49.038;8.710;2023-09-19T11:58:15;24.70;61.90
10123;DHT22;5101;49.038;8.710;2023-09-19T12:00:44;24.60;62.30
10123;DHT22;5101;49.038;8.710;2023-09-19T12:03:11;24.60;62.10
10123;DHT22;5101;49.038;8.710;2023-09-19T12:05:39;24.60;63.00
10123;DHT22;5101;49.038;8.710;2023-09-19T12:08:05;24.70;63.80
10123;DHT22;5101;49.038;8.710;2023-09-19T12:10:44;24.80;63.70
10123;DHT22;5101;49.038;8.710;2023-09-19T12:13:10;24.80;63.20
10123;DHT22;5101;49.038;8.710;2023-09-19T12:15:39;24.90;62.60
10123;DHT22;5101;49.038;8.710;2023-09-19T12:18:05;24.90;62.30
10123;DHT22;5101;49.038;8.710;2023-09-19T12:20:44;24.90;62.50
10123;DHT22;5101;49.038;8.710;2023-09-19T12:23:16;25.00;61.60
10123;DHT22;5101;49.038;8.710;2023-09-19T12:25:43;25.10;59.50
10123;DHT22;5101;49.038;8.710;2023-09-19T12:28:13;25.00;60.50
10123;DHT22;5101;49.038;8.710;2023-09-19T12:30:39;25.10;60.90
10123;DHT22;5101;49.038;8.710;2023-09-19T12:33:18;25.20;59.80
10123;DHT22;5101;49.038;8.710;2023-09-19T12:35:45;25.30;58.30
10123;DHT22;5101;49.038;8.710;2023-09-19T12:38:11;25.30;58.50
10123;DHT22;5101;49.038;8.710;2023-09-19T12:40:50;25.30;56.90
10123;DHT22;5101;49.038;8.710;2023-09-19T12:43:17;25.40;56.90
10123;DHT22;5101;49.038;8.710;2023-09-19T12:45:43;25.50;56.80
10123;DHT22;5101;49.038;8.710;2023-09-19T12:53:28;25.00;56.90
10123;DHT22;5101;49.038;8.710;2023-09-19T12:56:01;25.00;57.30
10123;DHT22;5101;49.038;8.710;2023-09-19T12:58:26;24.90;58.10
10123;DHT22;5101;49.038;8.710;2023-09-19T13:00:52;25.10;59.60
10123;DHT22;5101;49.038;8.710;2023-09-19T13:14:19;24.90;59.80
10123;DHT22;5101;49.038;8.710;2023-09-19T13:19:50;25.00;59.60
10123;DHT22;5101;49.038;8.710;2023-09-19T13:22:39;25.00;59.50
10123;DHT22;5101;49.038;8.710;2023-09-19T13:25:09;24.90;59.40
10123;DHT22;5101;49.038;8.710;2023-09-19T13:27:45;24.90;59.90
10123;DHT22;5101;49.038;8.710;2023-09-19T13:30:12;24.90;60.30
10123;DHT22;5101;49.038;8.710;2023-09-19T13:32:38;24.80;60.10
10123;DHT22;5101;49.038;8.710;2023-09-19T13:35:06;24.90;60.20
10123;DHT22;5101;49.038;8.710;2023-09-19T13:37:34;24.80;60.00
10123;DHT22;5101;49.038;8.710;2023-09-19T13:40:08;24.80;58.80
10123;DHT22;5101;49.038;8.710;2023-09-19T13:42:33;24.80;58.80
10123;DHT22;5101;49.038;8.710;2023-09-19T13:44:59;24.80;58.00
10123;DHT22;5101;49.038;8.710;2023-09-19T13:47:25;24.70;57.90
10123;DHT22;5101;49.038;8.710;2023-09-19T13:49:52;24.60;57.80
10123;DHT22;5101;49.038;8.710;2023-09-19T13:52:21;24.50;57.50
10123;DHT22;5101;49.038;8.710;2023-09-19T13:54:49;24.40;57.20
10123;DHT22;5101;49.038;8.710;2023-09-19T13:57:15;24.30;58.20
10123;DHT22;5101;49.038;8.710;2023-09-19T13:59:42;24.40;57.80
10123;DHT22;5101;49.038;8.710;2023-09-19T14:02:07;24.40;58.10
10123;DHT22;5101;49.038;8.710;2023-09-19T14:04:33;24.30;57.90
10123;DHT22;5101;49.038;8.710;2023-09-19T14:07:00;24.20;58.30
10123;DHT22;5101;49.038;8.710;2023-09-19T14:09:26;24.30;59.30
10123;DHT22;5101;49.038;8.710;2023-09-19T14:11:51;24.20;59.40
10123;DHT22;5101;49.038;8.710;2023-09-19T14:14:18;24.20;60.30
10123;DHT22;5101;49.038;8.710;2023-09-19T14:16:44;24.30;58.30
10123;DHT22;5101;49.038;8.710;2023-09-19T14:19:10;24.30;57.50
10123;DHT22;5101;49.038;8.710;2023-09-19T14:21:36;24.30;58.60
10123;DHT22;5101;49.038;8.710;2023-09-19T14:24:02;24.30;58.90
10123;DHT22;5101;49.038;8.710;2023-09-19T14:26:28;24.30;59.10
10123;DHT22;5101;49.038;8.710;2023-09-19T14:28:54;24.30;59.40
10123;DHT22;5101;49.038;8.710;2023-09-19T14:31:20;24.20;59.30
10123;DHT22;5101;49.038;8.710;2023-09-19T14:33:45;24.20;59.20
10123;DHT22;5101;49.038;8.710;2023-09-19T14:36:18;24.20;58.40
10123;DHT22;5101;49.038;8.710;2023-09-19T14:38:44;24.30;58.30
10123;DHT22;5101;49.038;8.710;2023-09-19T14:41:10;24.30;58.40
10123;DHT22;5101;49.038;8.710;2023-09-19T14:43:35;24.30;58.90
10123;DHT22;5101;49.038;8.710;2023-09-19T14:46:07;24.20;58.30
10123;DHT22;5101;49.038;8.710;2023-09-19T14:48:33;24.00;59.00
10123;DHT22;5101;49.038;8.710;2023-09-19T14:51:03;24.00;58.80
10123;DHT22;5101;49.038;8.710;2023-09-19T14:53:30;24.00;59.00
10123;DHT22;5101;49.038;8.710;2023-09-19T14:55:55;24.10;58.00
10123;DHT22;5101;49.038;8.710;2023-09-19T14:58:21;24.10;58.30
10123;DHT22;5101;49.038;8.710;2023-09-19T15:00:47;24.10;58.70
10123;DHT22;5101;49.038;8.710;2023-09-19T15:03:12;24.10;58.60
10123;DHT22;5101;49.038;8.710;2023-09-19T15:05:39;24.10;58.70
10123;DHT22;5101;49.038;8.710;2023-09-19T15:08:05;24.00;58.70
10123;DHT22;5101;49.038;8.710;2023-09-19T15:10:31;23.90;58.90
10123;DHT22;5101;49.038;8.710;2023-09-19T15:12:56;23.90;59.10
10123;DHT22;5101;49.038;8.710;2023-09-19T15:15:22;23.90;59.50
10123;DHT22;5101;49.038;8.710;2023-09-19T15:17:48;23.90;59.60
10123;DHT22;5101;49.038;8.710;2023-09-19T15:20:14;23.90;59.20
10123;DHT22;5101;49.038;8.710;2023-09-19T15:22:40;23.90;59.70
10123;DHT22;5101;49.038;8.710;2023-09-19T15:25:05;23.90;59.20
10123;DHT22;5101;49.038;8.710;2023-09-19T15:27:31;23.80;59.10
10123;DHT22;5101;49.038;8.710;2023-09-19T15:29:59;23.70;59.50
10123;DHT22;5101;49.038;8.710;2023-09-19T15:32:26;23.70;59.80
10123;DHT22;5101;49.038;8.710;2023-09-19T15:34:51;23.70;59.80
10123;DHT22;5101;49.038;8.710;2023-09-19T15:37:17;23.60;60.20
10123;DHT22;5101;49.038;8.710;2023-09-19T15:39:42;23.70;61.30
10123;DHT22;5101;49.038;8.710;2023-09-19T15:42:10;23.70;62.50
10123;DHT22;5101;49.038;8.710;2023-09-19T15:44:36;23.70;62.50
10123;DHT22;5101;49.038;8.710;2023-09-19T15:47:03;23.70;62.00
10123;DHT22;5101;49.038;8.710;2023-09-19T15:49:28;23.70;62.10
10123;DHT22;5101;49.038;8.710;2023-09-19T15:51:54;23.60;62.20
10123;DHT22;5101;49.038;8.710;2023-09-19T15:54:20;23.60;62.80
10123;DHT22;5101;49.038;8.710;2023-09-19T15:56:46;23.60;63.50
10123;DHT22;5101;49.038;8.710;2023-09-19T15:59:16;23.50;64.50
10123;DHT22;5101;49.038;8.710;2023-09-19T16:01:43;23.60;65.40
10123;DHT22;5101;49.038;8.710;2023-09-19T16:04:10;23.60;64.60
10123;DHT22;5101;49.038;8.710;2023-09-19T16:06:36;23.60;65.20
10123;DHT22;5101;49.038;8.710;2023-09-19T16:09:03;23.60;65.90
10123;DHT22;5101;49.038;8.710;2023-09-19T16:11:30;23.60;65.40
10123;DHT22;5101;49.038;8.710;2023-09-19T16:13:56;23.50;66.10
10123;DHT22;5101;49.038;8.710;2023-09-19T16:16:23;23.40;66.60
10123;DHT22;5101;49.038;8.710;2023-09-19T16:18:50;23.40;66.90
10123;DHT22;5101;49.038;8.710;2023-09-19T16:21:24;23.40;67.10
10123;DHT22;5101;49.038;8.710;2023-09-19T16:23:51;23.40;66.90
10123;DHT22;5101;49.038;8.710;2023-09-19T16:26:19;23.40;67.00
10123;DHT22;5101;49.038;8.710;2023-09-19T16:28:47;23.30;67.90
10123;DHT22;5101;49.038;8.710;2023-09-19T16:31:13;23.30;68.20
10123;DHT22;5101;49.038;8.710;2023-09-19T16:33:40;23.20;68.40
10123;DHT22;5101;49.038;8.710;2023-09-19T16:36:17;23.20;68.10
10123;DHT22;5101;49.038;8.710;2023-09-19T16:38:45;23.20;68.50
10123;DHT22;5101;49.038;8.710;2023-09-19T16:41:11;23.10;69.00
10123;DHT22;5101;49.038;8.710;2023-09-19T16:43:40;23.10;68.70